BIHS weather

Hrafnseyri Airport
Hrafnseyri, Westfjords, Iceland

Public forecast

Using degrees Celsius for public forecast. Weather courtesy of forecast.io.

METAR (pilot weather report)

Report is more than 6 hours old.

Closest report is Bildudalur Airport, 6.8 nm (12.6 km) SSW. Retrieved 2019/04/23 16:00 UTC (8 hours ago):

BIBD 231600Z 05017G30KT 9999 -RA OVC030 06/M00 Q0995

TAF (pilot weather forecast)

Closest forecast is Reykjavik Airport, 104.7 nm (193.9 km) SSE. Retrieved 2019/04/23 21:00 UTC (3 hours ago):

TAF BIRK 231959Z 2321/2421 10025G38KT 9999 -SHRA FEW023 SCT030 BKN036 TX10/2321Z TN05/2406Z BECMG 2323/2401 17018G28KT BECMG 2406/2409 15012KT BECMG 2410/2412 VRB02KT 5000 RADZ OVC010 BECMG 2417/2420 10015KT